createdAt,value
2018-06-25T00:01:44.993Z,5.90
2018-06-25T00:04:12.965Z,5.77
2018-06-25T00:06:40.677Z,7.57
2018-06-25T00:09:09.495Z,4.93
2018-06-25T00:11:37.428Z,5.23
2018-06-25T00:14:05.416Z,5.23
2018-06-25T00:16:33.299Z,5.23
2018-06-25T00:19:01.041Z,5.20
2018-06-25T00:21:28.785Z,5.47
2018-06-25T00:23:56.587Z,5.33
2018-06-25T00:26:24.366Z,4.97
2018-06-25T00:28:52.183Z,5.83
2018-06-25T00:31:19.991Z,4.67
2018-06-25T00:33:47.718Z,6.97
2018-06-25T00:36:15.501Z,5.40
2018-06-25T00:38:43.153Z,6.13
2018-06-25T00:41:10.924Z,6.30
2018-06-25T00:43:38.604Z,6.97
2018-06-25T00:46:06.351Z,6.23
2018-06-25T00:48:34.083Z,7.37
2018-06-25T00:51:01.902Z,4.97
2018-06-25T00:53:29.739Z,4.90
2018-06-25T00:55:57.523Z,4.40
2018-06-25T00:58:25.264Z,4.93
2018-06-25T01:00:53.020Z,4.47
2018-06-25T01:03:20.776Z,4.60
2018-06-25T01:05:48.554Z,5.17
2018-06-25T01:08:16.320Z,5.10
2018-06-25T01:10:44.012Z,4.40
2018-06-25T01:13:11.762Z,5.23
2018-06-25T01:15:39.427Z,4.73
2018-06-25T01:18:07.220Z,4.23
2018-06-25T01:20:35.042Z,4.70
2018-06-25T01:23:02.853Z,8.83
2018-06-25T01:25:30.727Z,4.80
2018-06-25T01:27:58.409Z,5.97
2018-06-25T01:30:26.112Z,5.27
2018-06-25T01:32:53.864Z,7.00
2018-06-25T01:35:21.654Z,5.10
2018-06-25T01:37:49.430Z,7.53
2018-06-25T01:40:17.251Z,5.30
2018-06-25T01:42:44.944Z,4.80
2018-06-25T01:45:12.692Z,5.07
2018-06-25T01:47:40.451Z,5.90
2018-06-25T01:50:08.343Z,5.67
2018-06-25T01:52:36.092Z,4.47
2018-06-25T01:55:03.882Z,5.80
2018-06-25T01:57:31.765Z,6.60
2018-06-25T01:59:59.504Z,11.03
2018-06-25T02:02:27.320Z,4.93
2018-06-25T02:04:55.148Z,4.90
2018-06-25T02:07:23.000Z,5.87
2018-06-25T02:09:50.831Z,7.37
2018-06-25T02:12:18.644Z,4.70
2018-06-25T02:14:46.388Z,4.60
2018-06-25T02:17:14.265Z,5.63
2018-06-25T02:19:42.053Z,11.53
2018-06-25T02:22:09.911Z,7.27
2018-06-25T02:24:37.658Z,3.90
2018-06-25T02:27:05.565Z,6.40
2018-06-25T02:29:33.507Z,9.40
2018-06-25T02:32:01.303Z,4.93
2018-06-25T02:34:29.128Z,6.70
2018-06-25T02:36:56.960Z,7.07
2018-06-25T02:39:24.866Z,5.97
2018-06-25T02:41:52.638Z,5.03
2018-06-25T02:44:20.535Z,7.07
2018-06-25T02:46:48.364Z,4.23
2018-06-25T02:49:16.260Z,5.10
2018-06-25T02:51:44.115Z,4.27
2018-06-25T02:54:11.985Z,4.10
2018-06-25T02:56:39.732Z,4.70
2018-06-25T02:59:07.545Z,4.60
2018-06-25T03:01:35.460Z,4.90
2018-06-25T03:04:03.239Z,4.53
2018-06-25T03:06:31.013Z,5.30
2018-06-25T03:08:58.889Z,4.20
2018-06-25T03:11:26.643Z,4.13
2018-06-25T03:13:54.539Z,6.50
2018-06-25T03:16:22.470Z,4.63
2018-06-25T03:18:50.231Z,5.07
2018-06-25T03:21:18.112Z,9.30
2018-06-25T03:23:45.890Z,5.17
2018-06-25T03:26:13.786Z,5.23
2018-06-25T03:28:41.661Z,4.67
2018-06-25T03:31:09.469Z,4.87
2018-06-25T03:33:37.286Z,4.40
2018-06-25T03:36:05.210Z,5.83
2018-06-25T03:38:32.999Z,4.07
2018-06-25T03:41:00.837Z,4.77
2018-06-25T03:43:28.687Z,5.00
2018-06-25T03:45:56.507Z,5.20
2018-06-25T03:48:24.318Z,5.83
2018-06-25T03:50:51.996Z,6.97
2018-06-25T03:53:19.879Z,5.53
2018-06-25T03:55:47.624Z,4.43
2018-06-25T03:58:15.413Z,4.97
2018-06-25T04:00:43.283Z,4.40
2018-06-25T04:03:11.145Z,4.80
2018-06-25T04:05:38.932Z,4.40
2018-06-25T04:08:06.791Z,4.57
2018-06-25T04:10:34.629Z,4.50
2018-06-25T04:13:02.392Z,5.07
2018-06-25T04:15:30.170Z,4.43
2018-06-25T04:17:57.909Z,4.80
2018-06-25T04:20:25.678Z,5.37
2018-06-25T04:22:53.480Z,5.43
2018-06-25T04:25:21.299Z,5.60
2018-06-25T04:27:49.121Z,5.87
2018-06-25T04:30:16.978Z,7.10
2018-06-25T04:32:44.725Z,5.50
2018-06-25T04:35:12.518Z,5.83
2018-06-25T04:37:40.412Z,5.83
2018-06-25T04:40:08.270Z,6.50
2018-06-25T04:42:36.245Z,6.60
2018-06-25T04:45:04.057Z,6.33
2018-06-25T04:47:31.930Z,6.80
2018-06-25T04:49:59.701Z,7.27
2018-06-25T04:52:27.454Z,8.60
2018-06-25T04:54:55.244Z,6.93
2018-06-25T04:57:23.085Z,6.27
2018-06-25T04:59:50.899Z,6.10
2018-06-25T05:02:18.705Z,6.87
2018-06-25T05:04:46.462Z,6.33
2018-06-25T05:07:14.377Z,6.20
2018-06-25T05:09:42.101Z,7.40
2018-06-25T05:12:10.001Z,5.83
2018-06-25T05:14:37.745Z,4.63
2018-06-25T05:17:05.633Z,6.93
2018-06-25T05:19:33.381Z,5.90
2018-06-25T05:22:01.128Z,6.50
2018-06-25T05:24:28.931Z,5.70
2018-06-25T05:26:56.690Z,5.83
2018-06-25T05:29:24.417Z,6.27
2018-06-25T05:31:52.332Z,6.00
2018-06-25T05:34:20.160Z,6.37
2018-06-25T05:36:47.929Z,6.10
2018-06-25T05:39:15.729Z,5.70
2018-06-25T05:41:43.563Z,5.70
2018-06-25T05:44:11.602Z,6.00
2018-06-25T05:46:39.428Z,5.97
2018-06-25T05:49:07.258Z,6.07
2018-06-25T05:51:35.072Z,6.60
2018-06-25T05:54:02.891Z,6.40
2018-06-25T05:56:30.706Z,5.60
2018-06-25T05:58:58.672Z,8.60
2018-06-25T06:01:26.595Z,5.90
2018-06-25T06:03:54.297Z,5.80
2018-06-25T06:06:22.163Z,6.00
2018-06-25T06:08:50.064Z,5.10
2018-06-25T06:11:17.914Z,6.87
2018-06-25T06:13:45.829Z,6.50
2018-06-25T06:16:13.649Z,5.43
2018-06-25T06:18:41.738Z,6.30
2018-06-25T06:21:09.579Z,6.13
2018-06-25T06:23:37.338Z,6.70
2018-06-25T06:26:05.202Z,5.77
2018-06-25T06:28:33.034Z,6.67
2018-06-25T06:31:00.838Z,6.53
2018-06-25T06:33:28.972Z,6.60
2018-06-25T06:35:56.653Z,6.70
2018-06-25T06:38:24.498Z,7.23
2018-06-25T06:40:52.155Z,6.13
2018-06-25T06:43:19.953Z,6.57
2018-06-25T06:45:47.615Z,6.83
2018-06-25T06:48:15.359Z,6.43
2018-06-25T06:50:43.133Z,6.00
2018-06-25T06:53:10.897Z,6.30
2018-06-25T06:55:38.657Z,6.17
2018-06-25T06:58:06.446Z,6.50
2018-06-25T07:00:34.205Z,6.27
2018-06-25T07:03:02.049Z,6.90
2018-06-25T07:05:29.826Z,6.10
2018-06-25T07:07:57.575Z,6.80
2018-06-25T07:10:25.386Z,8.70
2018-06-25T07:12:53.159Z,7.30
2018-06-25T07:15:20.963Z,7.90
2018-06-25T07:17:48.760Z,7.07
2018-06-25T07:20:16.532Z,6.90
2018-06-25T07:22:44.340Z,6.50
2018-06-25T07:25:12.463Z,7.00
2018-06-25T07:27:40.334Z,7.30
2018-06-25T07:30:08.186Z,7.57
2018-06-25T07:32:35.973Z,7.23
2018-06-25T07:35:04.136Z,7.83
2018-06-25T07:37:31.986Z,6.47
2018-06-25T07:40:00.361Z,6.27
2018-06-25T07:42:28.203Z,6.67
2018-06-25T07:44:55.893Z,7.10
2018-06-25T07:47:23.886Z,6.47
2018-06-25T07:49:51.848Z,6.00
2018-06-25T07:52:19.614Z,10.47
2018-06-25T07:54:47.372Z,5.60
2018-06-25T07:57:15.119Z,6.70
2018-06-25T07:59:42.911Z,8.60
2018-06-25T08:02:10.875Z,8.60
2018-06-25T08:04:38.644Z,7.20
2018-06-25T08:07:06.603Z,6.07
2018-06-25T08:09:34.465Z,9.00
2018-06-25T08:12:02.128Z,6.40
2018-06-25T08:14:29.892Z,7.00
2018-06-25T08:16:57.683Z,7.97
2018-06-25T08:19:25.601Z,6.00
2018-06-25T08:21:53.441Z,6.50
2018-06-25T08:24:21.299Z,7.13
2018-06-25T08:26:49.029Z,7.97
2018-06-25T08:29:16.836Z,7.30
2018-06-25T08:31:44.700Z,6.93
2018-06-25T08:34:12.610Z,5.67
2018-06-25T08:36:40.392Z,7.60
2018-06-25T08:39:09.090Z,7.57
2018-06-25T08:41:36.649Z,6.00
2018-06-25T08:44:04.208Z,5.50
2018-06-25T08:46:31.797Z,5.40
2018-06-25T08:48:59.511Z,5.33
2018-06-25T08:51:27.294Z,5.77
2018-06-25T08:53:55.076Z,5.70
2018-06-25T08:56:22.916Z,4.47
2018-06-25T08:58:50.709Z,4.93
2018-06-25T09:01:18.770Z,4.73
2018-06-25T09:03:46.566Z,5.07
2018-06-25T09:06:14.208Z,3.90
2018-06-25T09:08:41.844Z,3.43
2018-06-25T09:11:09.650Z,3.43
2018-06-25T09:13:37.402Z,5.40
2018-06-25T09:16:05.115Z,3.37
2018-06-25T09:18:33.032Z,3.00
2018-06-25T09:21:00.889Z,3.60
2018-06-25T09:23:28.690Z,3.60
2018-06-25T09:25:56.600Z,4.00
2018-06-25T09:28:24.372Z,4.47
2018-06-25T09:30:52.154Z,3.90
2018-06-25T09:33:20.010Z,3.87
2018-06-25T09:35:47.938Z,3.70
2018-06-25T09:38:15.757Z,3.70
2018-06-25T09:40:43.522Z,3.53
2018-06-25T09:43:11.279Z,5.13
2018-06-25T09:45:39.075Z,4.07
2018-06-25T09:48:06.807Z,5.33
2018-06-25T09:50:34.465Z,4.20
2018-06-25T09:53:02.344Z,4.23
2018-06-25T09:55:30.097Z,3.93
2018-06-25T09:57:57.882Z,4.50
2018-06-25T10:00:30.864Z,5.00
2018-06-25T10:02:58.657Z,6.57
2018-06-25T10:05:26.488Z,4.47
2018-06-25T10:07:54.159Z,4.00
2018-06-25T10:10:21.924Z,4.67
2018-06-25T10:12:49.566Z,4.40
2018-06-25T10:15:17.453Z,4.40
2018-06-25T10:17:45.244Z,4.70
2018-06-25T10:20:13.073Z,4.10
2018-06-25T10:22:40.833Z,5.00
2018-06-25T10:25:08.521Z,3.73
2018-06-25T10:27:36.250Z,3.67
2018-06-25T10:30:04.137Z,3.50
2018-06-25T10:32:31.812Z,4.87
2018-06-25T10:34:59.525Z,3.13
2018-06-25T10:37:27.329Z,2.80
2018-06-25T10:39:55.143Z,3.67
2018-06-25T10:42:22.972Z,3.07
2018-06-25T10:44:50.613Z,3.30
2018-06-25T10:47:18.417Z,3.60
2018-06-25T10:49:45.924Z,4.50
2018-06-25T10:52:13.447Z,2.97
2018-06-25T10:54:41.037Z,3.20
2018-06-25T10:57:08.635Z,3.03
2018-06-25T10:59:36.339Z,3.80
2018-06-25T11:02:03.752Z,6.60
2018-06-25T11:04:31.348Z,3.00
2018-06-25T11:06:58.897Z,2.80
2018-06-25T11:09:26.433Z,3.70
2018-06-25T11:11:54.009Z,3.33
2018-06-25T11:14:21.542Z,2.70
2018-06-25T11:16:49.149Z,3.00
2018-06-25T11:19:16.687Z,2.70
2018-06-25T11:21:44.231Z,7.13
2018-06-25T11:24:11.758Z,3.60
2018-06-25T11:26:39.360Z,3.60
2018-06-25T11:29:06.839Z,3.13
2018-06-25T11:31:34.593Z,3.20
2018-06-25T11:34:02.431Z,4.30
2018-06-25T11:36:29.938Z,6.87
2018-06-25T11:38:57.479Z,3.57
2018-06-25T11:41:25.192Z,3.47
2018-06-25T11:43:52.696Z,3.10
2018-06-25T11:46:20.253Z,3.87
2018-06-25T11:48:47.821Z,2.97
2018-06-25T11:51:15.365Z,2.93
2018-06-25T11:53:42.913Z,3.73
2018-06-25T11:56:10.491Z,3.30
2018-06-25T11:58:38.041Z,2.90
2018-06-25T12:01:05.546Z,2.90
2018-06-25T12:03:33.088Z,2.63
2018-06-25T12:06:00.616Z,3.00
2018-06-25T12:08:28.165Z,2.83
2018-06-25T12:10:55.766Z,3.00
2018-06-25T12:13:23.413Z,3.27
2018-06-25T12:15:50.978Z,2.90
2018-06-25T12:18:18.721Z,3.10
2018-06-25T12:20:46.501Z,2.90
2018-06-25T12:23:14.267Z,4.17
2018-06-25T12:25:41.920Z,2.97
2018-06-25T12:28:09.800Z,2.97
2018-06-25T12:30:37.542Z,3.37
2018-06-25T12:33:05.544Z,3.00
2018-06-25T12:35:33.291Z,3.17
2018-06-25T12:38:01.045Z,2.80
2018-06-25T12:40:28.832Z,4.03
2018-06-25T12:42:57.093Z,3.20
2018-06-25T12:45:24.900Z,7.00
2018-06-25T12:47:52.542Z,3.77
2018-06-25T12:50:20.312Z,4.40
2018-06-25T12:52:48.285Z,4.60
2018-06-25T12:55:16.145Z,7.30
2018-06-25T12:57:43.894Z,3.87
2018-06-25T13:00:11.691Z,3.17
2018-06-25T13:02:39.432Z,2.83
2018-06-25T13:05:07.217Z,3.37
2018-06-25T13:07:35.076Z,4.53
2018-06-25T13:10:02.952Z,3.57
2018-06-25T13:12:30.729Z,4.20
2018-06-25T13:14:58.553Z,3.60
2018-06-25T13:17:26.329Z,3.90
2018-06-25T13:19:54.200Z,4.27
2018-06-25T13:22:21.941Z,3.63
2018-06-25T13:24:49.647Z,3.97
2018-06-25T13:27:17.693Z,4.63
2018-06-25T13:29:45.448Z,4.17
2018-06-25T13:32:13.227Z,4.00
2018-06-25T13:34:40.996Z,4.53
2018-06-25T13:37:08.953Z,4.80
2018-06-25T13:39:36.926Z,5.90
2018-06-25T13:42:04.913Z,4.30
2018-06-25T13:44:32.545Z,4.07
2018-06-25T13:47:00.349Z,4.00
2018-06-25T13:49:28.201Z,7.03
2018-06-25T13:51:55.993Z,4.47
2018-06-25T13:54:23.833Z,4.10
2018-06-25T13:56:51.573Z,3.77
2018-06-25T13:59:19.345Z,4.17
2018-06-25T14:01:47.130Z,4.87
2018-06-25T14:04:14.966Z,3.43
2018-06-25T14:06:43.202Z,3.67
2018-06-25T14:09:11.741Z,3.20
2018-06-25T14:11:39.592Z,5.50
2018-06-25T14:14:08.052Z,2.60
2018-06-25T14:16:36.199Z,3.00
2018-06-25T14:19:03.854Z,4.37
2018-06-25T14:21:31.586Z,3.00
2018-06-25T14:24:04.494Z,3.97
2018-06-25T14:26:37.480Z,4.00
2018-06-25T14:29:09.520Z,3.10
2018-06-25T14:31:37.269Z,2.80
2018-06-25T14:34:10.282Z,3.37
2018-06-25T14:36:38.052Z,4.10
2018-06-25T14:39:08.787Z,2.83
2018-06-25T14:41:36.566Z,3.43
2018-06-25T14:44:04.816Z,2.70
2018-06-25T14:46:32.605Z,2.70
2018-06-25T14:49:00.439Z,2.87
2018-06-25T14:51:28.101Z,3.00
2018-06-25T14:53:56.122Z,3.33
2018-06-25T14:56:24.031Z,3.60
2018-06-25T14:58:51.842Z,4.73
2018-06-25T15:01:19.630Z,3.17
2018-06-25T15:03:47.549Z,2.90
2018-06-25T15:06:15.647Z,2.97
2018-06-25T15:08:43.363Z,3.80
2018-06-25T15:11:11.171Z,2.60
2018-06-25T15:13:39.021Z,3.40
2018-06-25T15:16:06.818Z,2.57
2018-06-25T15:18:34.472Z,2.90
2018-06-25T15:21:02.308Z,2.80
2018-06-25T15:23:30.114Z,2.90
2018-06-25T15:25:57.953Z,3.63
2018-06-25T15:28:25.618Z,2.90
2018-06-25T15:30:53.592Z,4.40
2018-06-25T15:33:21.325Z,3.27
2018-06-25T15:35:49.229Z,3.20
2018-06-25T15:38:17.091Z,4.40
2018-06-25T15:40:44.951Z,2.47
2018-06-25T15:43:12.833Z,2.93
2018-06-25T15:45:40.720Z,3.27
2018-06-25T15:48:08.496Z,2.60
2018-06-25T15:50:36.216Z,3.03
2018-06-25T15:53:03.857Z,2.40
2018-06-25T15:55:31.496Z,2.67
2018-06-25T15:57:59.213Z,3.00
2018-06-25T16:00:27.021Z,2.73
2018-06-25T16:02:54.865Z,2.87
2018-06-25T16:05:23.096Z,2.93
2018-06-25T16:07:50.858Z,2.40
2018-06-25T16:10:18.757Z,2.20
2018-06-25T16:12:46.689Z,2.90
2018-06-25T16:15:14.267Z,3.90
2018-06-25T16:17:42.050Z,1.93
2018-06-25T16:20:09.891Z,3.57
2018-06-25T16:22:38.893Z,4.80
2018-06-25T16:25:06.851Z,1.90
2018-06-25T16:27:34.694Z,2.60
2018-06-25T16:30:02.591Z,2.23
2018-06-25T16:32:30.352Z,2.00
2018-06-25T16:34:58.138Z,2.70
2018-06-25T16:37:26.043Z,2.50
2018-06-25T16:39:53.943Z,2.30
2018-06-25T16:42:21.828Z,1.97
2018-06-25T16:44:49.437Z,2.87
2018-06-25T16:47:17.386Z,2.30
2018-06-25T16:49:45.425Z,3.53
2018-06-25T16:52:13.234Z,2.07
2018-06-25T16:54:41.003Z,2.83
2018-06-25T16:57:08.824Z,4.63
2018-06-25T16:59:36.632Z,3.30
2018-06-25T17:02:04.572Z,2.50
2018-06-25T17:04:32.470Z,3.07
2018-06-25T17:07:00.216Z,2.70
2018-06-25T17:09:28.057Z,2.63
2018-06-25T17:11:55.879Z,2.90
2018-06-25T17:14:23.682Z,4.50
2018-06-25T17:16:51.516Z,6.13
2018-06-25T17:19:19.377Z,3.80
2018-06-25T17:21:47.197Z,2.60
2018-06-25T17:24:14.993Z,3.37
2018-06-25T17:26:42.749Z,6.43
2018-06-25T17:29:10.628Z,2.63
2018-06-25T17:31:38.369Z,3.37
2018-06-25T17:34:06.279Z,3.10
2018-06-25T17:36:34.354Z,2.50
2018-06-25T17:39:02.449Z,3.10
2018-06-25T17:41:30.366Z,3.07
2018-06-25T17:43:58.218Z,2.67
2018-06-25T17:46:25.991Z,2.60
2018-06-25T17:48:53.793Z,2.73
2018-06-25T17:51:21.681Z,2.70
2018-06-25T17:53:49.492Z,2.20
2018-06-25T17:56:17.381Z,2.70
2018-06-25T17:58:45.122Z,2.83
2018-06-25T18:01:12.891Z,9.23
2018-06-25T18:03:40.774Z,2.33
2018-06-25T18:06:08.629Z,2.93
2018-06-25T18:08:36.356Z,3.30
2018-06-25T18:11:04.162Z,2.10
2018-06-25T18:13:31.911Z,2.57
2018-06-25T18:15:59.780Z,2.70
2018-06-25T18:18:27.561Z,2.53
2018-06-25T18:20:55.428Z,2.50
2018-06-25T18:23:23.176Z,6.13
2018-06-25T18:25:50.953Z,8.80
2018-06-25T18:28:18.772Z,4.13
2018-06-25T18:30:46.572Z,4.97
2018-06-25T18:33:14.363Z,5.03
2018-06-25T18:35:41.891Z,8.33
2018-06-25T18:38:09.452Z,20.97
2018-06-25T18:40:37.032Z,20.33
2018-06-25T18:43:04.756Z,25.67
2018-06-25T18:45:32.467Z,30.73
2018-06-25T18:47:59.989Z,22.10
2018-06-25T18:50:27.752Z,5.23
2018-06-25T18:52:55.606Z,8.13
2018-06-25T18:55:23.484Z,4.10
2018-06-25T18:57:51.190Z,2.10
2018-06-25T19:00:19.095Z,5.27
2018-06-25T19:02:47.083Z,2.90
2018-06-25T19:05:14.890Z,2.87
2018-06-25T19:07:42.654Z,2.10
2018-06-25T19:10:10.433Z,2.30
2018-06-25T19:12:38.411Z,6.63
2018-06-25T19:15:06.893Z,3.20
2018-06-25T19:17:35.026Z,4.40
2018-06-25T19:20:02.824Z,2.80
2018-06-25T19:22:30.639Z,3.10
2018-06-25T19:24:58.438Z,2.03
2018-06-25T19:27:26.382Z,2.80
2018-06-25T19:29:54.142Z,2.00
2018-06-25T19:32:21.826Z,1.93
2018-06-25T19:34:49.576Z,2.50
2018-06-25T19:37:17.337Z,2.30
2018-06-25T19:39:45.026Z,2.70
2018-06-25T19:42:12.593Z,4.43
2018-06-25T19:44:40.237Z,2.60
2018-06-25T19:47:08.018Z,4.63
2018-06-25T19:49:35.805Z,2.50
2018-06-25T19:52:03.398Z,2.23
2018-06-25T19:54:31.147Z,2.67
2018-06-25T19:56:58.857Z,2.40
2018-06-25T19:59:26.637Z,3.47
2018-06-25T20:01:54.278Z,2.57
2018-06-25T20:04:22.148Z,2.93
2018-06-25T20:06:49.692Z,3.17
2018-06-25T20:09:17.272Z,5.33
2018-06-25T20:11:44.828Z,4.93
2018-06-25T20:14:12.457Z,3.50
2018-06-25T20:16:40.399Z,3.03
2018-06-25T20:19:08.124Z,2.60
2018-06-25T20:21:35.730Z,2.00
2018-06-25T20:24:03.348Z,3.50
2018-06-25T20:26:30.966Z,3.90
2018-06-25T20:28:58.549Z,2.30
2018-06-25T20:31:26.128Z,3.00
2018-06-25T20:33:53.909Z,2.57
2018-06-25T20:36:21.771Z,2.33
2018-06-25T20:38:49.516Z,2.40
2018-06-25T20:41:17.409Z,2.53
2018-06-25T20:43:45.192Z,4.10
2018-06-25T20:46:13.009Z,2.70
2018-06-25T20:48:40.804Z,3.27
2018-06-25T20:51:08.667Z,2.80
2018-06-25T20:53:36.336Z,2.97
2018-06-25T20:56:04.193Z,2.50
2018-06-25T20:58:31.875Z,2.40
2018-06-25T21:00:59.616Z,2.57
2018-06-25T21:03:27.456Z,2.53
2018-06-25T21:05:55.280Z,3.00
2018-06-25T21:08:22.992Z,9.43
2018-06-25T21:10:50.787Z,5.40
2018-06-25T21:13:18.534Z,2.70
2018-06-25T21:15:46.288Z,2.77
2018-06-25T21:18:14.095Z,3.50
2018-06-25T21:20:42.181Z,10.07
2018-06-25T21:23:10.029Z,3.37
2018-06-25T21:25:37.772Z,2.70
2018-06-25T21:28:05.558Z,8.33
2018-06-25T21:30:33.195Z,3.40
2018-06-25T21:33:00.953Z,2.50
2018-06-25T21:35:28.753Z,3.03
2018-06-25T21:37:56.473Z,2.70
2018-06-25T21:40:24.158Z,3.00
2018-06-25T21:42:51.924Z,2.77
2018-06-25T21:45:19.697Z,2.67
2018-06-25T21:47:47.564Z,3.07
2018-06-25T21:50:15.301Z,2.63
2018-06-25T21:52:43.079Z,2.83
2018-06-25T21:55:10.746Z,4.10
2018-06-25T21:57:38.499Z,3.13
2018-06-25T22:00:08.463Z,2.80
2018-06-25T22:02:36.177Z,3.07
2018-06-25T22:05:03.928Z,3.00
2018-06-25T22:07:31.764Z,6.23
2018-06-25T22:09:59.582Z,3.37
2018-06-25T22:12:27.471Z,3.13
2018-06-25T22:14:55.243Z,4.10
2018-06-25T22:17:23.001Z,3.93
2018-06-25T22:19:50.755Z,3.50
2018-06-25T22:22:18.540Z,3.63
2018-06-25T22:24:46.275Z,4.10
2018-06-25T22:27:14.085Z,3.40
2018-06-25T22:29:41.903Z,2.83
2018-06-25T22:32:09.680Z,4.73
2018-06-25T22:34:37.455Z,6.40
2018-06-25T22:37:05.322Z,2.80
2018-06-25T22:39:33.085Z,3.17
2018-06-25T22:42:00.999Z,3.33
2018-06-25T22:44:28.804Z,3.30
2018-06-25T22:46:56.568Z,2.73
2018-06-25T22:49:24.530Z,4.00
2018-06-25T22:51:52.308Z,3.73
2018-06-25T22:54:20.086Z,3.20
2018-06-25T22:56:47.854Z,3.10
2018-06-25T22:59:15.690Z,3.37
2018-06-25T23:01:43.472Z,3.37
2018-06-25T23:04:11.234Z,3.67
2018-06-25T23:06:38.872Z,3.30
2018-06-25T23:09:07.832Z,3.30
2018-06-25T23:11:35.459Z,6.63
2018-06-25T23:17:20.137Z,3.50
2018-06-25T23:19:47.734Z,5.30
2018-06-25T23:22:15.293Z,4.43
2018-06-25T23:24:42.819Z,3.50
2018-06-25T23:27:10.433Z,3.63
2018-06-25T23:29:38.024Z,3.77
2018-06-25T23:32:05.533Z,3.63
2018-06-25T23:34:33.085Z,3.27
2018-06-25T23:37:00.680Z,3.50
2018-06-25T23:39:28.202Z,4.00
2018-06-25T23:41:55.760Z,3.47
2018-06-25T23:44:23.272Z,4.60
2018-06-25T23:46:50.797Z,6.50
2018-06-25T23:49:18.346Z,2.93
2018-06-25T23:51:45.870Z,3.33
2018-06-25T23:54:13.427Z,3.40
2018-06-25T23:56:40.982Z,3.90
2018-06-25T23:59:08.582Z,3.80
